D/T METAR WX W/DIR W/SPE G/SPE TEMP DEWP
19/03/19 02:50 EGVN 190250Z 25003KT 3700 BR FEW020 BKN032 07/06 Q1024 TEMPO 3000 BR WSW (250°) 3.5mph 7°C 6°C
19/03/19 01:50 EGVN 190150Z 25003KT 5000 HZ BKN023 BKN090 07/06 Q1024 WHT BECMG 4000 BR GRN HZ WSW (250°) 3.5mph 7°C 6°C
19/03/19 01:16 EGVN 190116Z 25003KT 6000 HZ OVC022 07/06 Q1024 WHT TEMPO 4000 BR GRN HZ WSW (250°) 3.5mph 7°C 6°C
18/03/19 23:50 EGVN 182350Z 27004KT 9999 FEW026 BKN030 07/06 Q1024 BLU TEMPO 5000 BR SCT024 WHT W (270°) 4.6mph 7°C 6°C
18/03/19 22:50 EGVN 182250Z 25003KT 9999 FEW025 BKN035 07/06 Q1024 BLU NOSIG WSW (250°) 3.5mph 7°C 6°C
18/03/19 21:50 EGVN 182150Z 26003KT 9999 FEW035 SCT044 07/06 Q1023 BLU NOSIG W (260°) 3.5mph 7°C 6°C
18/03/19 20:50 EGVN 182050Z 26003KT 9999 BKN042 08/06 Q1023 NOSIG W (260°) 3.5mph 8°C 6°C
18/03/19 19:50 EGVN 181950Z 26004KT 9999 BKN042 08/06 Q1023 BLU NOSIG W (260°) 4.6mph 8°C 6°C
18/03/19 18:50 EGVN 181850Z 26004KT 9999 BKN040 08/06 Q1022 BLU TEMPO SCT014 GRN W (260°) 4.6mph 8°C 6°C
18/03/19 17:50 EGVN 181750Z 26004KT 9999 FEW018 BKN040 09/06 Q1022 BLU TEMPO SCT014 GRN W (260°) 4.6mph 9°C 6°C
18/03/19 16:50 EGVN 181650Z 26005KT 9999 -SHRA FEW020 SCT035 09/06 Q1021 BLU TEMPO SCT018 WHT -SHRA W (260°) 5.8mph 9°C 6°C
18/03/19 15:50 EGVN 181550Z 26006KT 9999 FEW025 BKN035 BKN080 09/05 Q1021 BLU TEMPO -SHRA SCT022 WHT W (260°) 6.9mph 9°C 5°C
18/03/19 14:50 EGVN 181450Z 27008KT 9999 -SHRA FEW023 SCT038 09/04 Q1021 BLU TEMPO SCT023 WHT -SHRA W (270°) 9.2mph 9°C 4°C
18/03/19 14:50 EGVN 181450Z 27008KT 9999 -SHRA FEW023 SCT038 09/04 Q1021 TEMPO SCT023 -SHRA W (270°) 9.2mph 9°C 4°C
18/03/19 13:50 EGVN 181350Z 27007KT 9999 FEW026 SCT035 BKN060 10/04 Q1021 BLU TEMPO SCT020 WHT W (270°) 8.1mph 10°C 4°C
18/03/19 13:50 EGVN 181350Z 27007KT 9999 FEW026 SCT035 BKN060 10/04 Q1021 TEMPO SCT020 W (270°) 8.1mph 10°C 4°C
18/03/19 12:50 EGVN 181250Z 25006KT 9999 -SHRA FEW018 BKN028 09/03 Q1021 BLU TEMPO 7000 SHRA SCT018 WHT -SHRA WSW (250°) 6.9mph 9°C 3°C
18/03/19 11:50 EGVN 181150Z 27007KT 9999 -SHRA BKN028 BKN090 09/03 Q1021 BLU TEMPO 7000 SHRA SCT024 WHT -SHRA W (270°) 8.1mph 9°C 3°C
18/03/19 10:50 EGVN 181050Z 28009KT 9999 FEW026 BKN090 10/03 Q1021 NOSIG W (280°) 10.4mph 10°C 3°C
18/03/19 09:50 EGVN 180950Z 27007KT 9999 FEW018 BKN110 08/04 Q1021 BLU TEMPO SCT018 WHT W (270°) 8.1mph 8°C 4°C
18/03/19 08:50 EGVN 180850Z 26006KT 9999 FEW015 BKN120 07/04 Q1020 NOSIG W (260°) 6.9mph 7°C 4°C
18/03/19 07:50 EGVN 180750Z 26005KT CAVOK 05/03 Q1019 BLU NOSIG W (260°) 5.8mph 5°C 3°C
18/03/19 06:50 EGVN 180650Z 26004KT CAVOK 04/02 Q1019 BLU NOSIG W (260°) 4.6mph 4°C 2°C
18/03/19 05:50 EGVN 180550Z 27005KT CAVOK 04/02 Q1018 BLU NOSIG W (270°) 5.8mph 4°C 2°C
18/03/19 04:50 EGVN 180450Z 27005KT CAVOK 04/02 Q1018 NOSIG W (270°) 5.8mph 4°C 2°C
18/03/19 03:50 EGVN 180350Z 28005KT CAVOK 04/02 Q1017 NOSIG W (280°) 5.8mph 4°C 2°C
18/03/19 02:50 EGVN 180250Z 29006KT CAVOK 04/02 Q1017 BLU NOSIG WNW (290°) 6.9mph 4°C 2°C
18/03/19 01:50 EGVN 180150Z 30007KT CAVOK 05/02 Q1016 NOSIG WNW (300°) 8.1mph 5°C 2°C
18/03/19 00:50 EGVN 180050Z 31009KT 9999 FEW040 05/02 Q1016 BLU NOSIG NW (310°) 10.4mph 5°C 2°C
17/03/19 23:50 EGVN 172350Z 31008KT 9999 FEW040 05/03 Q1015 NOSIG NW (310°) 9.2mph 5°C 3°C
17/03/19 22:50 EGVN 172250Z 30009KT 9999 FEW045 06/02 Q1014 NOSIG WNW (300°) 10.4mph 6°C 2°C
17/03/19 21:50 EGVN 172150Z 30011KT 9999 FEW045 06/02 Q1013 BLU NOSIG WNW (300°) 12.7mph 6°C 2°C
17/03/19 20:50 EGVN 172050Z 29008KT 9999 -SHRA FEW030 SCT040 06/03 Q1012 NOSIG -SHRA WNW (290°) 9.2mph 6°C 3°C
17/03/19 19:50 EGVN 171950Z 26004KT 9999 FEW040 05/03 Q1011 NOSIG W (260°) 4.6mph 5°C 3°C
17/03/19 18:50 EGVN 171850Z 29006KT 9999 SCT045 05/03 Q1010 NOSIG WNW (290°) 6.9mph 5°C 3°C
17/03/19 17:50 EGVN 171750Z 27007KT 9999 FEW025 BKN028 06/03 Q1009 BLU NOSIG W (270°) 8.1mph 6°C 3°C
17/03/19 16:50 EGVN 171650Z 27011KT 9999 VCSH SCT035 BKN050 06/02 Q1008 RESHRA BLU TEMPO 7000 SHRA WHT VCSH W (270°) 12.7mph 6°C 2°C
17/03/19 15:50 EGVN 171550Z 29009KT CAVOK 08/M00 Q1007 BLU NOSIG WNW (290°) 10.4mph 8°C 0°C
17/03/19 14:50 EGVN 171450Z 29016KT 9999 VCSH FEW035CB BKN050 09/M02 Q1007 NOSIG VCSH WNW (290°) 18.4mph 9°C -2°C
17/03/19 13:50 EGVN 171350Z 29012G23KT 9999 VCSH FEW035CB FEW040TCU BKN045 09/M01 Q1006 BLU TEMPO 7000 SHRA SHGS WHT VCSH WNW (290°) 13.8mph 26.5mph 9°C -1°C
17/03/19 13:30 EGVN 171330Z 29012G23KT 9999 FEW035CB SCT045 08/01 Q1006 BLU TEMPO 7000 SHRA SHGS WHT WNW (290°) 13.8mph 26.5mph 8°C 1°C
17/03/19 13:21 EGVN 171321Z 28013KT 9999 SHGS SHRA SCT035CB BKN050 08/M01 Q1006 BLU BECMG NSW BLU SHGS SHRA W (280°) 15.0mph 8°C -1°C
17/03/19 12:50 EGVN 171250Z 28012KT 9999 VCSH FEW042CB SCT045 09/M01 Q1006 RESHRA RESHGS BLU NOSIG VCSH SHGS W (280°) 13.8mph 9°C -1°C
17/03/19 11:50 EGVN 171150Z 27009KT 9999 VCSH SCT042 09/00 Q1005 NOSIG VCSH W (270°) 10.4mph 9°C 0°C
17/03/19 10:50 EGVN 171050Z 29011KT 9999 BKN045 07/M00 Q1005 NOSIG WNW (290°) 12.7mph 7°C 0°C
17/03/19 09:50 EGVN 170950Z 27011G23KT 9999 SCT034 07/00 Q1004 BLU NOSIG W (270°) 12.7mph 26.5mph 7°C 0°C
17/03/19 08:50 EGVN 170850Z 27009KT 9999 SCT030 06/01 Q1004 BLU NOSIG W (270°) 10.4mph 6°C 1°C
17/03/19 07:50 EGVN 170750Z 26007KT 9999 FEW038 04/02 Q1003 BLU NOSIG W (260°) 8.1mph 4°C 2°C
17/03/19 06:50 EGVN 170650Z 25004KT 9999 FEW038 03/01 Q1002 BLU NOSIG WSW (250°) 4.6mph 3°C 1°C
17/03/19 05:50 EGVN 170550Z 26007KT 9999 FEW025 03/01 Q1001 BLU NOSIG W (260°) 8.1mph 3°C 1°C
17/03/19 04:50 EGVN 170450Z 26006KT 9999 FEW025 04/02 Q1000 NOSIG W (260°) 6.9mph 4°C 2°C
17/03/19 03:50 EGVN 170350Z AUTO 25006KT 9999 FEW028/// BKN110/// 04/02 Q0999 WSW (250°) 6.9mph 4°C 2°C
17/03/19 02:50 EGVN 170250Z 26008KT 9999 FEW028 04/02 Q0998 BLU NOSIG W (260°) 9.2mph 4°C 2°C
17/03/19 01:50 EGVN 170150Z 26008G18KT CAVOK 05/03 Q0997 NOSIG W (260°) 9.2mph 20.7mph 5°C 3°C
17/03/19 00:50 EGVN 170050Z 25005KT 9999 FEW032 BKN045 06/04 Q0997 BLU NOSIG WSW (250°) 5.8mph 6°C 4°C
16/03/19 23:50 EGVN 162350Z 26006KT 9999 FEW026 BKN050 06/04 Q0996 NOSIG W (260°) 6.9mph 6°C 4°C
16/03/19 22:50 EGVN 162250Z 26010KT 9999 FEW034 SCT050 07/05 Q0996 BLU NOSIG W (260°) 11.5mph 7°C 5°C
16/03/19 21:50 EGVN 162150Z 28009KT 9999 FEW022 BKN045 07/05 Q0995 BLU NOSIG W (280°) 10.4mph 7°C 5°C
16/03/19 20:50 EGVN 162050Z 25011KT 9999 -RA FEW015 SCT028 BKN050 08/07 Q0994 BLU NOSIG -RA WSW (250°) 12.7mph 8°C 7°C
16/03/19 19:50 EGVN 161950Z 26011KT 9999 RA SCT015 SCT030 BKN050 09/07 Q0994 WHT BECMG FEW015 BLU RA W (260°) 12.7mph 9°C 7°C
16/03/19 18:50 EGVN 161850Z 23013G24KT 9999 -RA FEW012 BKN015 10/08 Q0993 WHT TEMPO 4000 RA BKN010 GRN -RA SW (230°) 15.0mph 27.6mph 10°C 8°C
16/03/19 17:50 EGVN 161750Z 23014G27KT 9999 -RA BKN018 11/07 Q0994 WHT TEMPO 4000 RA BKN010 GRN -RA SW (230°) 16.1mph 31.1mph 11°C 7°C
16/03/19 16:50 EGVN 161650Z 23016G31KT 9999 -RA BKN016 10/08 Q0994 WHT TEMPO 4000 RA BKN012 GRN -RA SW (230°) 18.4mph 35.7mph 10°C 8°C
16/03/19 15:50 EGVN 161550Z 23015G26KT 9999 OVC020 11/07 Q0996 NOSIG SW (230°) 17.3mph 29.9mph 11°C 7°C
16/03/19 14:50 EGVN 161450Z 22016G30KT 9999 -RA OVC019 11/07 Q0996 NOSIG -RA SW (220°) 18.4mph 34.5mph 11°C 7°C
16/03/19 13:50 EGVN 161350Z 22013G24KT 9999 BKN025 12/07 Q0998 BLU TEMPO BKN022 WHT SW (220°) 15.0mph 27.6mph 12°C 7°C
16/03/19 13:50 EGVN 161350Z 22013G24KT 9999 BKN025 12/07 Q0998 TEMPO BKN022 SW (220°) 15.0mph 27.6mph 12°C 7°C
16/03/19 12:50 EGVN 161250Z 23012G28KT 9999 BKN028 12/06 Q0999 NOSIG SW (230°) 13.8mph 32.2mph 12°C 6°C
16/03/19 11:50 EGVN 161150Z 25013G24KT 9999 BKN025 12/06 Q1000 BLU NOSIG WSW (250°) 15.0mph 27.6mph 12°C 6°C
16/03/19 10:50 EGVN 161050Z 24014G25KT 9999 -RA BKN022 11/07 Q1001 WHT TEMPO BKN025 BLU -RA WSW (240°) 16.1mph 28.8mph 11°C 7°C
16/03/19 09:50 EGVN 160950Z 24014G29KT 9999 BKN024 BKN035 11/06 Q1002 WHT TEMPO BKN025 BLU WSW (240°) 16.1mph 33.4mph 11°C 6°C
16/03/19 09:50 EGVN 160950Z 24014G29KT 9999 BKN024 BKN035 11/06 Q1002 TEMPO BKN025 WSW (240°) 16.1mph 33.4mph 11°C 6°C
16/03/19 08:50 EGVN 160850Z 24013G29KT 9999 BKN024 11/07 Q1002 WHT TEMPO BKN030 BLU WSW (240°) 15.0mph 33.4mph 11°C 7°C
16/03/19 08:50 EGVN 160850Z 24013G29KT 9999 BKN024 11/07 Q1002 TEMPO BKN030 WSW (240°) 15.0mph 33.4mph 11°C 7°C
16/03/19 07:50 EGVN 160750Z 23010G21KT 9999 -RA BKN014 10/08 Q1003 GRN BECMG BKN018 WHT -RA SW (230°) 11.5mph 24.2mph 10°C 8°C
16/03/19 07:50 EGVN 160750Z 23010G21KT 9999 -RA BKN014 10/08 Q1003 BECMG BKN018 -RA SW (230°) 11.5mph 24.2mph 10°C 8°C
16/03/19 06:50 EGVN 160650Z 23009G20KT 9999 -RA SCT010 BKN022 10/08 Q1004 GRN BECMG FEW010 BKN022 WHT -RA SW (230°) 10.4mph 23.0mph 10°C 8°C
16/03/19 05:50 EGVN 160550Z 23009G19KT 9999 -RA SCT010 BKN022 10/08 Q1004 GRN BECMG FEW010 BKN022 WHT -RA SW (230°) 10.4mph 21.9mph 10°C 8°C
16/03/19 04:50 EGVN 160450Z 23010KT 9999 -RADZ BKN012 10/09 Q1005 GRN NOSIG -RA -DZ SW (230°) 11.5mph 10°C 9°C
16/03/19 03:50 EGVN 160350Z AUTO 23010KT 3400 -RA BKN005/// BKN013/// 10/09 Q1005 -RA SW (230°) 11.5mph 10°C 9°C
16/03/19 02:50 EGVN 160250Z 23009G20KT 4000 RADZ BKN006 BKN014 10/09 Q1006 YLO1 BECMG 5000 -RADZ BKN012 GRN RA DZ SW (230°) 10.4mph 23.0mph 10°C 9°C
16/03/19 01:50 EGVN 160150Z 24009KT 5000 -RADZ SCT006 BKN014 10/09 Q1007 YLO1 BECMG 9999 NSW BKN010 GRN -RA -DZ WSW (240°) 10.4mph 10°C 9°C
16/03/19 00:50 EGVN 160050Z 24009G19KT 5000 -RADZ SCT006 BKN014 10/10 Q1007 YLO1 BECMG 9999 NSW BKN010 GRN -RA -DZ WSW (240°) 10.4mph 21.9mph 10°C 10°C
15/03/19 23:50 EGVN 152350Z 23007KT 4000 RADZ BKN005 10/10 Q1008 YLO1 BECMG 9999 NSW BKN010 GRN RA DZ SW (230°) 8.1mph 10°C 10°C
15/03/19 22:50 EGVN 152250Z 24006KT 4000 -DZ SCT005 BKN010 09/09 Q1009 YLO1 BECMG 9999 NSW FEW005 BKN010 GRN -DZ WSW (240°) 6.9mph 9°C 9°C
15/03/19 21:50 EGVN 152150Z 25005KT 9999 SCT010 BKN026 10/08 Q1009 NOSIG WSW (250°) 5.8mph 10°C 8°C
15/03/19 20:50 EGVN 152050Z 24005KT 9999 BKN030 09/07 Q1010 BLU BECMG BKN022 WHT WSW (240°) 5.8mph 9°C 7°C
15/03/19 19:50 EGVN 151950Z 24003KT 9999 BKN036 09/07 Q1009 BLU BECMG SCT022 WHT WSW (240°) 3.5mph 9°C 7°C
15/03/19 18:50 EGVN 151850Z 27009KT 9999 FEW030 SCT200 10/06 Q1009 BLU BECMG SCT022 WHT W (270°) 10.4mph 10°C 6°C
15/03/19 17:50 EGVN 151750Z 27011KT 9999 FEW028 SCT150 BKN250 11/07 Q1008 BLU BECMG SCT022 WHT W (270°) 12.7mph 11°C 7°C
15/03/19 16:50 EGVN 151650Z 27009KT 9999 FEW028 BKN060 BKN250 12/07 Q1007 BLU NOSIG W (270°) 10.4mph 12°C 7°C
15/03/19 15:50 EGVN 151550Z 27013KT 9999 FEW025 BKN250 12/08 Q1007 NOSIG W (270°) 15.0mph 12°C 8°C
15/03/19 14:50 EGVN 151450Z 27015G27KT 9999 FEW025 SCT045 BKN300 12/09 Q1006 NOSIG W (270°) 17.3mph 31.1mph 12°C 9°C
15/03/19 13:50 EGVN 151350Z 29016KT 9999 -RA FEW022 BKN030 BKN045 12/09 Q1006 BLU NOSIG -RA WNW (290°) 18.4mph 12°C 9°C
15/03/19 12:50 EGVN 151250Z 27016G28KT 9999 FEW015 BKN030 13/11 Q1006 BLU NOSIG W (270°) 18.4mph 32.2mph 13°C 11°C
15/03/19 11:50 EGVN 151150Z 27019G31KT 9999 -RA FEW013 SCT025 BKN040 14/10 Q1006 NOSIG -RA W (270°) 21.9mph 35.7mph 14°C 10°C
15/03/19 10:50 EGVN 151050Z 26015G31KT 9999 BKN023 BKN150 13/10 Q1005 WHT BECMG SCT025 BLU W (260°) 17.3mph 35.7mph 13°C 10°C
15/03/19 09:50 EGVN 150950Z 26012G23KT 9999 SCT013 BKN030 13/10 Q1005 GRN TEMPO FEW013 BKN030 BLU W (260°) 13.8mph 26.5mph 13°C 10°C
15/03/19 09:50 EGVN 150950Z 26012G23KT 9999 SCT013 BKN030 13/10 Q1005 TEMPO FEW013 BKN030 W (260°) 13.8mph 26.5mph 13°C 10°C
15/03/19 08:50 EGVN 150850Z 26013G30KT 9999 SCT013 SCT030 BKN150 12/09 Q1005 GRN TEMPO FEW013 BKN030 BLU W (260°) 15.0mph 34.5mph 12°C 9°C
15/03/19 07:50 EGVN 150750Z 26013G30KT 9999 SCT013 BKN040 BKN150 12/09 Q1005 GRN TEMPO SCT015 WHT W (260°) 15.0mph 34.5mph 12°C 9°C
15/03/19 06:50 EGVN 150650Z 26014G26KT 9999 SCT014 SCT045 BKN190 11/09 Q1005 GRN TEMPO SCT015 WHT W (260°) 16.1mph 29.9mph 11°C 9°C
15/03/19 05:50 EGVN 150550Z 26015G26KT 9999 SCT012 BKN044 11/09 Q1004 GRN TEMPO SCT020 WHT W (260°) 17.3mph 29.9mph 11°C 9°C
15/03/19 05:50 EGVN 150550Z 26015G26KT 9999 SCT012 BKN044 11/09 Q1004 TEMPO SCT020 W (260°) 17.3mph 29.9mph 11°C 9°C
15/03/19 04:50 EGVN 150450Z 25012KT 9999 SCT012 BKN022 11/09 Q1004 GRN TEMPO SCT022 WHT WSW (250°) 13.8mph 11°C 9°C
15/03/19 04:37 EGVN 150437Z 26014G25KT 9999 SCT012 BKN022 11/09 Q1004 GRN TEMPO SCT022 WHT W (260°) 16.1mph 28.8mph 11°C 9°C
15/03/19 04:08 EGVN 150408Z 26014G25KT 9999 FEW014 BKN020 11/09 Q1004 WHT TEMPO SCT012 GRN W (260°) 16.1mph 28.8mph 11°C 9°C
15/03/19 02:50 EGVN 150250Z 26013G23KT 9999 -RA BKN010 OVC020 11/10 Q1004 NOSIG -RA W (260°) 15.0mph 26.5mph 11°C 10°C
15/03/19 02:18 EGVN 150218Z 26012KT 9999 BKN011 11/10 Q1004 GRN TEMPO 6000 -RA GRN W (260°) 13.8mph 11°C 10°C
15/03/19 00:50 EGVN 150050Z 26013G23KT 5000 -RADZ BKN008 11/10 Q1005 TEMPO 9999 NSW -RA -DZ W (260°) 15.0mph 26.5mph 11°C 10°C
15/03/19 00:11 EGVN 150011Z 26011KT 9999 OVC008 10/10 Q1005 GRN TEMPO 6000 -RA SCT006 YLO1 W (260°) 12.7mph 10°C 10°C
14/03/19 23:50 EGVN 142350Z 23006KT 6000 -DZ BKN005 OVC009 09/09 Q1006 TEMPO 9999 NSW BKN010 -DZ SW (230°) 6.9mph 9°C 9°C
14/03/19 23:15 EGVN 142315Z 23006KT 5000 -DZ BKN007 OVC020 09/08 Q1006 GRN TEMPO 3000 BKN006 YLO1 -DZ SW (230°) 6.9mph 9°C 8°C
14/03/19 22:50 EGVN 142250Z 23006KT 9999 FEW023 BKN030 10/07 Q1007 BLU BECMG BKN010 GRN SW (230°) 6.9mph 10°C 7°C
14/03/19 21:50 EGVN 142150Z 24005KT CAVOK 09/07 Q1007 BLU BECMG BKN010 GRN WSW (240°) 5.8mph 9°C 7°C
14/03/19 20:50 EGVN 142050Z 24004KT 9999 FEW038 BKN100 09/07 Q1008 NOSIG WSW (240°) 4.6mph 9°C 7°C
14/03/19 19:50 EGVN 141950Z 24004KT 9999 FEW045 BKN120 09/04 Q1008 NOSIG WSW (240°) 4.6mph 9°C 4°C
14/03/19 18:50 EGVN 141850Z 27004KT 9999 SCT048 SCT180 BKN250 10/03 Q1007 NOSIG W (270°) 4.6mph 10°C 3°C
14/03/19 17:50 EGVN 141750Z 30012KT CAVOK 10/03 Q1007 BLU NOSIG WNW (300°) 13.8mph 10°C 3°C
14/03/19 16:50 EGVN 141650Z 29013KT 9999 FEW045 BKN250 11/02 Q1007 BLU NOSIG WNW (290°) 15.0mph 11°C 2°C
14/03/19 15:50 EGVN 141550Z 30011G22KT 9999 FEW045 BKN050 12/04 Q1006 NOSIG WNW (300°) 12.7mph 25.3mph 12°C 4°C
14/03/19 14:50 EGVN 141450Z 31018G30KT 9999 SCT045 BKN250 12/03 Q1005 BLU NOSIG NW (310°) 20.7mph 34.5mph 12°C 3°C
14/03/19 13:50 EGVN 141350Z 30020G33KT 9999 SCT045 BKN250 13/03 Q1004 BLU NOSIG WNW (300°) 23.0mph 38.0mph 13°C 3°C
14/03/19 12:50 EGVN 141250Z 30017G31KT 9999 FEW036 13/05 Q1003 NOSIG WNW (300°) 19.6mph 35.7mph 13°C 5°C
14/03/19 11:50 EGVN 141150Z 31022G32KT 9999 FEW036 SCT250 11/07 Q1003 BLU NOSIG NW (310°) 25.3mph 36.8mph 11°C 7°C
14/03/19 10:50 EGVN 141050Z 31011KT 9999 -RA FEW012 BKN018 11/09 Q1002 BECMG SCT030 -RA NW (310°) 12.7mph 11°C 9°C
14/03/19 10:27 EGVN 141027Z 27013G23KT 9999 4000E FEW009 BKN016 11/10 Q1002 GRN BECMG 9999 SCT030 BLU W (270°) 15.0mph 26.5mph 11°C 10°C
14/03/19 09:50 EGVN 140950Z 26015KT 4000 RA SCT009 SCT018 BKN022 10/09 Q1001 GRN BECMG 9999 NSW SCT030 BLU RA W (260°) 17.3mph 10°C 9°C
14/03/19 08:50 EGVN 140850Z 26016G27KT 9999 -RA FEW014 BKN022 10/09 Q1001 BECMG FEW022 -RA W (260°) 18.4mph 31.1mph 10°C 9°C
14/03/19 07:50 EGVN 140750Z 26015KT 6000 -RA FEW010 BKN018 BKN030 09/08 Q1002 WHT BECMG 9999 NSW FEW018 BLU -RA W (260°) 17.3mph 9°C 8°C
14/03/19 06:50 EGVN 140650Z 26015G26KT 9999 -RA BKN011 BKN018 09/08 Q1002 NOSIG -RA W (260°) 17.3mph 29.9mph 9°C 8°C
14/03/19 05:50 EGVN 140550Z 26015G26KT 8000 -RA BKN011 BKN018 09/07 Q1003 NOSIG -RA W (260°) 17.3mph 29.9mph 9°C 7°C
14/03/19 04:50 EGVN 140450Z 26015G30KT 9999 -RA BKN013 BKN020 08/07 Q1004 GRN TEMPO FEW013 BKN020 WHT -RA W (260°) 17.3mph 34.5mph 8°C 7°C
14/03/19 04:50 EGVN 140450Z 26015G30KT 9999 -RA BKN013 BKN020 08/07 Q1004 TEMPO FEW013 BKN020 -RA W (260°) 17.3mph 34.5mph 8°C 7°C
14/03/19 03:50 EGVN 140350Z 26011G23KT 9999 -RA SCT012 BKN020 08/07 Q1006 GRN TEMPO FEW012 BKN020 WHT -RA W (260°) 12.7mph 26.5mph 8°C 7°C
14/03/19 02:50 EGVN 140250Z 25010KT 9999 -RA FEW013 BKN015 BKN025 08/06 Q1008 WHT TEMPO SCT013 GRN -RA WSW (250°) 11.5mph 8°C 6°C
14/03/19 02:50 EGVN 140250Z 25010KT 9999 -RA FEW013 BKN015 BKN025 08/06 Q1008 TEMPO SCT013 -RA WSW (250°) 11.5mph 8°C 6°C
14/03/19 02:21 EGVN 140221Z 25010KT 9999 -RA SCT015 SCT038 BKN046 08/06 Q1009 WHT TEMPO 7000 RA WHT -RA WSW (250°) 11.5mph 8°C 6°C
14/03/19 01:50 EGVN 140150Z 26010G20KT 9999 -RA FEW015 BKN050 08/05 Q1010 BLU TEMPO SCT015 WHT -RA W (260°) 11.5mph 23.0mph 8°C 5°C
14/03/19 00:50 EGVN 140050Z 25007KT 9999 FEW040 BKN060 08/05 Q1010 NOSIG WSW (250°) 8.1mph 8°C 5°C
13/03/19 23:50 EGVN 132350Z 25008G19KT 9999 FEW026 BKN040 07/04 Q1012 BLU TEMPO SCT024 WHT WSW (250°) 9.2mph 21.9mph 7°C 4°C
13/03/19 22:50 EGVN 132250Z 25007KT 9999 BKN033 BKN100 07/03 Q1012 TEMPO SCT022 WSW (250°) 8.1mph 7°C 3°C
13/03/19 21:50 EGVN 132150Z 27009KT 9999 BKN034 08/03 Q1013 TEMPO SCT022 W (270°) 10.4mph 8°C 3°C
13/03/19 20:50 EGVN 132050Z 27011KT 9999 SCT035 BKN160 08/02 Q1013 NOSIG W (270°) 12.7mph 8°C 2°C